Time;durP1;ratioP1;P1;durP2;ratioP2;P2;SDS_P1;SDS_P2;PMS_P1;PMS_P2;Temp;Humidity;BMP_temperature;BMP_pressure;BME280_temperature;BME280_humidity;BME280_pressure;Samples;Min_cycle;Max_cycle;Signal;HPM_P1;HPM_P2
2023/12/13 00:00:40;;;;;;;157.23;56.33;;;6.70;90.30;;;;;;5038565;28;20057;-75
2023/12/13 00:03:06;;;;;;;183.47;56.33;;;6.70;90.30;;;;;;5027393;28;20049;-75
2023/12/13 00:05:32;;;;;;;189.83;57.10;;;6.70;90.30;;;;;;5027294;28;20325;-75
2023/12/13 00:07:57;;;;;;;171.10;54.87;;;6.70;90.30;;;;;;5026470;28;20124;-76
2023/12/13 00:10:23;;;;;;;240.63;62.50;;;6.70;90.20;;;;;;5027602;28;20069;-75
2023/12/13 00:12:48;;;;;;;172.63;58.10;;;6.60;90.20;;;;;;5027135;28;20084;-75
2023/12/13 00:15:14;;;;;;;197.67;56.47;;;6.60;90.20;;;;;;5009031;28;20469;-75
2023/12/13 00:17:40;;;;;;;242.97;62.47;;;6.60;90.20;;;;;;5020473;28;20046;-75
2023/12/13 00:20:07;;;;;;;267.10;63.70;;;6.60;90.10;;;;;;5007016;28;20104;-75
2023/12/13 00:22:33;;;;;;;273.13;65.73;;;6.60;90.10;;;;;;5006972;28;20516;-75
2023/12/13 00:24:58;;;;;;;281.37;66.90;;;6.50;90.10;;;;;;5006359;28;20477;-75
2023/12/13 00:27:24;;;;;;;266.20;62.70;;;6.50;90.20;;;;;;5006826;28;20058;-75
2023/12/13 00:29:50;;;;;;;245.47;62.50;;;6.50;90.10;;;;;;5017007;28;20111;-74
2023/12/13 00:32:16;;;;;;;317.93;64.33;;;6.50;90.10;;;;;;5009196;28;20274;-75
2023/12/13 00:34:41;;;;;;;276.97;78.30;;;6.50;90.20;;;;;;5026167;28;20057;-75
2023/12/13 00:37:07;;;;;;;222.33;75.27;;;6.50;90.20;;;;;;5025698;28;20128;-75
2023/12/13 00:39:32;;;;;;;189.20;71.43;;;6.50;90.10;;;;;;5007411;28;20077;-75
2023/12/13 00:41:58;;;;;;;111.17;50.93;;;6.50;90.10;;;;;;5014514;28;20049;-75
2023/12/13 00:44:24;;;;;;;141.60;67.03;;;6.50;90.10;;;;;;5010272;28;20056;-75
2023/12/13 00:46:49;;;;;;;184.27;69.23;;;6.50;90.20;;;;;;5026345;28;20138;-75
2023/12/13 00:49:15;;;;;;;104.87;49.30;;;6.50;90.20;;;;;;5027349;28;20515;-75
2023/12/13 00:51:41;;;;;;;133.83;59.87;;;6.50;90.20;;;;;;5012358;28;20126;-75
2023/12/13 00:54:06;;;;;;;132.43;56.23;;;6.50;90.20;;;;;;5017753;28;20128;-75
2023/12/13 00:56:33;;;;;;;125.10;51.17;;;6.60;90.30;;;;;;5025682;28;20060;-75
2023/12/13 00:58:59;;;;;;;165.17;68.03;;;6.60;90.20;;;;;;5026006;28;20087;-75
2023/12/13 01:01:25;;;;;;;155.63;58.83;;;6.60;90.20;;;;;;5025448;28;20072;-75
2023/12/13 01:03:51;;;;;;;117.13;50.03;;;6.60;90.30;;;;;;5019396;28;20419;-75
2023/12/13 01:06:16;;;;;;;112.10;49.43;;;6.60;90.30;;;;;;5021820;28;20485;-75
2023/12/13 01:08:42;;;;;;;105.90;46.33;;;6.50;90.30;;;;;;5007692;28;20741;-75
2023/12/13 01:11:11;;;;;;;137.03;51.17;;;6.60;90.30;;;;;;5016022;28;20489;-75
2023/12/13 01:13:37;;;;;;;107.10;45.07;;;6.60;90.20;;;;;;5027081;28;20061;-75
2023/12/13 01:16:03;;;;;;;108.50;43.70;;;6.60;90.30;;;;;;5010628;28;20152;-75
2023/12/13 01:18:29;;;;;;;130.53;44.67;;;6.60;90.30;;;;;;5020415;28;20416;-76
2023/12/13 01:20:55;;;;;;;152.70;48.73;;;6.60;90.30;;;;;;5006287;28;20190;-75
2023/12/13 01:23:21;;;;;;;152.83;45.70;;;6.60;90.30;;;;;;5007341;28;20077;-75
2023/12/13 01:25:46;;;;;;;108.80;39.07;;;6.50;90.30;;;;;;5006061;28;20076;-75
2023/12/13 01:28:12;;;;;;;120.43;41.67;;;6.60;90.20;;;;;;5006927;28;20096;-75
2023/12/13 01:30:37;;;;;;;117.00;39.90;;;6.50;90.30;;;;;;5021905;28;20088;-75
2023/12/13 01:33:03;;;;;;;115.33;38.77;;;6.50;90.30;;;;;;5017047;28;20227;-75
2023/12/13 01:35:29;;;;;;;94.37;34.03;;;6.50;90.30;;;;;;5006052;28;20124;-75
2023/12/13 01:37:54;;;;;;;77.03;31.97;;;6.50;90.20;;;;;;5025780;28;20053;-75
2023/12/13 01:40:20;;;;;;;102.00;35.67;;;6.50;90.30;;;;;;5026286;28;20452;-75
2023/12/13 01:42:46;;;;;;;112.97;37.20;;;6.50;90.30;;;;;;5017952;28;20061;-75
2023/12/13 01:45:12;;;;;;;95.03;35.47;;;6.50;90.30;;;;;;5021702;28;20041;-75
2023/12/13 01:47:38;;;;;;;100.77;33.63;;;6.50;90.20;;;;;;5026625;28;20510;-75
2023/12/13 01:50:04;;;;;;;84.57;32.10;;;6.50;90.20;;;;;;5025578;28;20141;-75
2023/12/13 01:52:30;;;;;;;100.13;35.13;;;6.50;90.20;;;;;;5024957;28;20460;-75
2023/12/13 01:54:56;;;;;;;119.23;36.33;;;6.50;90.20;;;;;;5026050;28;20084;-75
2023/12/13 01:57:23;;;;;;;122.83;38.03;;;6.50;90.30;;;;;;5024988;28;20127;-75
2023/12/13 01:59:49;;;;;;;120.10;37.97;;;6.50;90.30;;;;;;5023885;28;20485;-75
2023/12/13 02:02:15;;;;;;;135.70;39.53;;;6.50;90.20;;;;;;5021691;28;20639;-75
2023/12/13 02:04:42;;;;;;;142.77;39.40;;;6.50;90.20;;;;;;5022534;28;20188;-75
2023/12/13 02:07:08;;;;;;;119.37;38.80;;;6.50;90.20;;;;;;5022207;28;20042;-75
2023/12/13 02:09:34;;;;;;;141.67;40.57;;;6.50;90.20;;;;;;5023380;28;20061;-75
2023/12/13 02:12:00;;;;;;;137.97;41.00;;;6.50;90.30;;;;;;5024815;28;20049;-75
2023/12/13 02:14:26;;;;;;;148.57;41.97;;;6.40;90.20;;;;;;5025974;28;20084;-75
2023/12/13 02:16:53;;;;;;;176.73;47.00;;;6.50;90.30;;;;;;5024205;28;20045;-75
2023/12/13 02:19:19;;;;;;;147.03;44.30;;;6.40;90.20;;;;;;5025787;28;20076;-75
2023/12/13 02:21:44;;;;;;;142.37;42.93;;;6.40;90.30;;;;;;5028021;28;20489;-71
2023/12/13 02:24:11;;;;;;;159.00;45.23;;;6.40;90.30;;;;;;5029791;28;20119;-75
2023/12/13 02:26:43;;;;;;;157.07;46.13;;;6.50;90.30;;;;;;5029477;28;20057;-75
2023/12/13 02:29:10;;;;;;;162.83;46.43;;;6.50;90.30;;;;;;5025188;28;20104;-75
2023/12/13 02:31:35;;;;;;;176.20;48.00;;;6.50;90.20;;;;;;5008116;28;20057;-75
2023/12/13 02:34:01;;;;;;;193.40;51.60;;;6.50;90.30;;;;;;5026249;28;20049;-75
2023/12/13 02:36:27;;;;;;;210.63;52.27;;;6.50;90.40;;;;;;5029138;28;20413;-75
2023/12/13 02:38:52;;;;;;;197.57;49.70;;;6.50;90.30;;;;;;5029236;28;20493;-75
2023/12/13 02:41:18;;;;;;;181.03;49.53;;;6.50;90.40;;;;;;5027466;28;20489;-75
2023/12/13 02:43:44;;;;;;;215.33;51.30;;;6.50;90.40;;;;;;5026158;28;20076;-75
2023/12/13 02:46:10;;;;;;;177.07;49.30;;;6.50;90.40;;;;;;5028479;28;20492;-75
2023/12/13 02:48:35;;;;;;;179.80;49.77;;;6.50;90.30;;;;;;5029633;28;20512;-75
2023/12/13 02:51:01;;;;;;;227.27;52.73;;;6.50;90.40;;;;;;5028141;28;20045;-75
2023/12/13 02:53:27;;;;;;;232.50;54.07;;;6.50;90.40;;;;;;5023085;28;20053;-75
2023/12/13 02:55:53;;;;;;;228.30;53.57;;;6.50;90.40;;;;;;5008242;28;20417;-75
2023/12/13 02:58:18;;;;;;;240.13;54.53;;;6.50;90.40;;;;;;5009638;28;20136;-75
2023/12/13 03:00:44;;;;;;;210.73;53.43;;;6.50;90.40;;;;;;5025680;28;20377;-75
2023/12/13 03:03:09;;;;;;;234.80;57.57;;;6.50;90.40;;;;;;5028013;28;20061;-75
2023/12/13 03:05:35;;;;;;;237.43;56.87;;;6.50;90.40;;;;;;5027623;28;20049;-75
2023/12/13 03:08:01;;;;;;;211.53;55.47;;;6.50;90.40;;;;;;5028380;28;20061;-75
2023/12/13 03:10:27;;;;;;;250.90;57.20;;;6.60;90.30;;;;;;5028797;28;20075;-75
2023/12/13 03:12:54;;;;;;;223.03;57.17;;;6.60;90.30;;;;;;5027387;28;20057;-75
2023/12/13 03:15:19;;;;;;;237.20;57.80;;;6.60;90.40;;;;;;5020300;28;20057;-75
2023/12/13 03:17:45;;;;;;;206.53;54.87;;;6.50;90.40;;;;;;5016729;28;20049;-74
2023/12/13 03:20:11;;;;;;;223.93;55.40;;;6.60;90.40;;;;;;5028581;28;20057;-75
2023/12/13 03:22:37;;;;;;;212.90;57.20;;;6.60;90.40;;;;;;5028592;28;20192;-75
2023/12/13 03:25:03;;;;;;;265.40;61.23;;;6.60;90.50;;;;;;5027432;28;20135;-74
2023/12/13 03:27:30;;;;;;;279.80;60.97;;;6.60;90.40;;;;;;5027988;28;20057;-75
2023/12/13 03:29:56;;;;;;;242.43;60.17;;;6.60;90.40;;;;;;5028135;28;20041;-75
2023/12/13 03:32:21;;;;;;;251.37;60.17;;;6.60;90.40;;;;;;5027024;28;20136;-76
2023/12/13 03:34:47;;;;;;;258.80;61.10;;;6.60;90.50;;;;;;5028004;28;20508;-76
2023/12/13 03:37:14;;;;;;;233.40;58.03;;;6.60;90.40;;;;;;5027251;28;20060;-75
2023/12/13 03:39:40;;;;;;;258.40;60.97;;;6.60;90.40;;;;;;5028167;28;20112;-75
2023/12/13 03:42:05;;;;;;;230.80;59.50;;;6.60;90.50;;;;;;5023247;28;20053;-75
2023/12/13 03:44:31;;;;;;;227.30;59.17;;;6.60;90.40;;;;;;5008535;28;20068;-75
2023/12/13 03:46:57;;;;;;;215.20;57.43;;;6.60;90.60;;;;;;5027165;28;20053;-75
2023/12/13 03:49:23;;;;;;;189.30;54.63;;;6.60;90.50;;;;;;5028530;28;20057;-75
2023/12/13 03:51:48;;;;;;;242.93;62.23;;;6.60;90.40;;;;;;5026718;28;20058;-75
2023/12/13 03:54:15;;;;;;;202.73;56.20;;;6.70;90.60;;;;;;5016471;28;20050;-75
2023/12/13 03:56:41;;;;;;;207.00;56.93;;;6.70;90.50;;;;;;5007697;28;20136;-75
2023/12/13 03:59:07;;;;;;;206.67;59.37;;;6.70;90.60;;;;;;5010554;28;20500;-75
2023/12/13 04:01:33;;;;;;;119.53;49.53;;;6.70;90.60;;;;;;5027906;28;20084;-75
2023/12/13 04:03:59;;;;;;;196.00;56.73;;;6.70;90.60;;;;;;5025358;28;20077;-75
2023/12/13 04:06:24;;;;;;;178.30;54.13;;;6.70;90.60;;;;;;5027088;28;20137;-75
2023/12/13 04:08:50;;;;;;;157.10;52.30;;;6.70;90.60;;;;;;5027338;28;20045;-75
2023/12/13 04:11:16;;;;;;;135.27;50.13;;;6.70;90.60;;;;;;5026668;28;20053;-75
2023/12/13 04:13:42;;;;;;;168.53;52.73;;;6.70;90.60;;;;;;5041977;28;20140;-75
2023/12/13 04:16:08;;;;;;;228.63;60.07;;;6.70;90.60;;;;;;5021765;28;20053;-75
2023/12/13 04:18:34;;;;;;;191.73;56.40;;;6.70;90.60;;;;;;5028062;28;20485;-75
2023/12/13 04:21:00;;;;;;;194.17;57.13;;;6.70;90.60;;;;;;5026369;28;20051;-75
2023/12/13 04:23:26;;;;;;;196.50;56.97;;;6.70;90.60;;;;;;5026586;28;20128;-75
2023/12/13 04:25:52;;;;;;;233.83;59.77;;;6.70;90.60;;;;;;5025316;28;20061;-75
2023/12/13 04:28:17;;;;;;;210.97;57.67;;;6.80;90.60;;;;;;5027516;28;20037;-75
2023/12/13 04:30:43;;;;;;;197.87;58.27;;;6.80;90.60;;;;;;5009617;28;20313;-75
2023/12/13 04:33:09;;;;;;;198.60;56.83;;;6.80;90.70;;;;;;5017019;28;20045;-75
2023/12/13 04:35:34;;;;;;;347.30;69.10;;;6.80;90.70;;;;;;5026197;28;20068;-75
2023/12/13 04:38:00;;;;;;;224.50;58.70;;;6.80;90.70;;;;;;5009186;28;20050;-75
2023/12/13 04:40:26;;;;;;;210.77;57.60;;;6.70;90.70;;;;;;5027282;28;20508;-75
2023/12/13 04:42:51;;;;;;;187.43;54.87;;;6.70;90.60;;;;;;5016131;28;20069;-75
2023/12/13 04:45:17;;;;;;;207.13;56.70;;;6.70;90.60;;;;;;5007610;28;20332;-75
2023/12/13 04:47:43;;;;;;;281.50;62.63;;;6.70;90.70;;;;;;5007948;28;20405;-75
2023/12/13 04:50:09;;;;;;;280.93;61.13;;;6.70;90.60;;;;;;5007879;28;20570;-75
2023/12/13 04:52:35;;;;;;;272.40;61.20;;;6.70;90.60;;;;;;5027468;28;20136;-75
2023/12/13 04:55:01;;;;;;;243.87;55.90;;;6.70;90.60;;;;;;5007250;28;20434;-76
2023/12/13 04:57:27;;;;;;;358.83;68.47;;;6.70;90.70;;;;;;5006154;28;20058;-76
2023/12/13 04:59:53;;;;;;;297.40;62.90;;;6.70;90.60;;;;;;5016998;28;20140;-75
2023/12/13 05:02:18;;;;;;;248.70;59.33;;;6.70;90.60;;;;;;5025576;28;20075;-75
2023/12/13 05:04:44;;;;;;;237.17;57.87;;;6.70;90.70;;;;;;5025037;28;20060;-75
2023/12/13 05:07:10;;;;;;;165.73;51.53;;;6.60;90.60;;;;;;5025570;28;20460;-75
2023/12/13 05:09:35;;;;;;;185.73;52.20;;;6.70;90.60;;;;;;5026037;28;20057;-75
2023/12/13 05:12:02;;;;;;;146.67;50.93;;;6.70;90.60;;;;;;5025675;28;20085;-76
2023/12/13 05:14:27;;;;;;;143.63;49.27;;;6.60;90.60;;;;;;5020317;28;20068;-75
2023/12/13 05:16:53;;;;;;;147.33;50.03;;;6.60;90.60;;;;;;5019201;28;20417;-75
2023/12/13 05:19:19;;;;;;;264.63;59.33;;;6.70;90.70;;;;;;5026254;28;20124;-75
2023/12/13 05:21:44;;;;;;;233.87;54.77;;;6.60;90.60;;;;;;5025674;28;20464;-72
2023/12/13 05:24:10;;;;;;;253.20;57.20;;;6.60;90.60;;;;;;5026709;28;20342;-75
2023/12/13 05:26:35;;;;;;;327.00;62.70;;;6.60;90.60;;;;;;5026035;28;20166;-75
2023/12/13 05:29:02;;;;;;;278.83;57.97;;;6.60;90.60;;;;;;5024693;28;20049;-75
2023/12/13 05:31:28;;;;;;;305.53;60.90;;;6.50;90.50;;;;;;5025830;28;20309;-75
2023/12/13 05:33:54;;;;;;;281.27;57.47;;;6.50;90.60;;;;;;5024662;28;20047;-75
2023/12/13 05:36:20;;;;;;;268.03;57.23;;;6.50;90.50;;;;;;5025431;28;20041;-75
2023/12/13 05:38:45;;;;;;;208.20;51.50;;;6.40;90.50;;;;;;5023549;28;20058;-74
2023/12/13 05:41:11;;;;;;;222.83;54.13;;;6.40;90.50;;;;;;5024028;28;20100;-75
2023/12/13 05:43:37;;;;;;;252.20;56.10;;;6.40;90.50;;;;;;5033105;28;20540;-75
2023/12/13 05:46:06;;;;;;;281.13;58.00;;;6.40;90.50;;;;;;5020618;28;20057;-75
2023/12/13 05:48:32;;;;;;;320.73;59.47;;;6.40;90.50;;;;;;5010159;28;20057;-75
2023/12/13 05:51:01;;;;;;;266.17;55.60;;;6.40;90.50;;;;;;5024657;28;21467;-75
2023/12/13 05:53:31;;;;;;;311.63;59.57;;;6.40;90.50;;;;;;5033443;28;20049;-75
2023/12/13 05:55:59;;;;;;;234.97;53.10;;;6.30;90.50;;;;;;5036792;28;20100;-75
2023/12/13 05:58:26;;;;;;;269.03;58.50;;;6.40;90.50;;;;;;5047218;28;20059;-75
2023/12/13 06:00:51;;;;;;;214.40;52.23;;;6.30;90.50;;;;;;5029793;28;20049;-75
2023/12/13 06:03:17;;;;;;;203.17;52.23;;;6.40;90.50;;;;;;5021823;28;20053;-75
2023/12/13 06:05:43;;;;;;;207.87;51.73;;;6.40;90.60;;;;;;5029649;28;20073;-75
2023/12/13 06:08:08;;;;;;;240.37;55.53;;;6.40;90.60;;;;;;5020990;28;20042;-75
2023/12/13 06:10:34;;;;;;;221.60;51.83;;;6.40;90.60;;;;;;5016553;28;20060;-75
2023/12/13 06:13:00;;;;;;;205.17;56.47;;;6.40;90.60;;;;;;5029192;28;20060;-76
2023/12/13 06:15:25;;;;;;;218.93;53.13;;;6.40;90.60;;;;;;5028862;28;20567;-75
2023/12/13 06:17:51;;;;;;;198.43;52.07;;;6.40;90.60;;;;;;5029338;28;20091;-75
2023/12/13 06:20:17;;;;;;;193.00;53.73;;;6.50;90.60;;;;;;5044233;28;20195;-75
2023/12/13 06:22:43;;;;;;;261.30;58.67;;;6.50;90.70;;;;;;5030156;28;20057;-75
2023/12/13 06:25:08;;;;;;;207.10;53.60;;;6.50;90.60;;;;;;5026861;28;20118;-75
2023/12/13 06:27:34;;;;;;;202.23;53.57;;;6.50;90.60;;;;;;5045460;28;20046;-75
2023/12/13 06:30:00;;;;;;;199.40;52.17;;;6.50;90.60;;;;;;5017956;28;20461;-75
2023/12/13 06:32:25;;;;;;;196.87;51.57;;;6.50;90.60;;;;;;5014171;28;20140;-75
2023/12/13 06:34:51;;;;;;;208.77;53.73;;;6.50;90.60;;;;;;5028943;28;20056;-75
2023/12/13 06:37:17;;;;;;;188.70;53.03;;;6.50;90.60;;;;;;5028062;28;20045;-75
2023/12/13 06:39:42;;;;;;;239.33;57.23;;;6.50;90.70;;;;;;5028718;28;20543;-75
2023/12/13 06:42:08;;;;;;;256.60;56.70;;;6.50;90.60;;;;;;5024185;28;20527;-75
2023/12/13 06:44:37;;;;;;;206.57;52.77;;;6.50;90.70;;;;;;5009290;28;20132;-75
2023/12/13 06:47:05;;;;;;;191.00;50.97;;;6.50;90.60;;;;;;4991468;28;20377;-75
2023/12/13 06:49:34;;;;;;;235.77;55.90;;;6.50;90.70;;;;;;5009477;28;20046;-75
2023/12/13 06:52:01;;;;;;;232.20;53.73;;;6.50;90.60;;;;;;5024833;28;20381;-75
2023/12/13 06:54:28;;;;;;;230.87;56.43;;;6.50;90.70;;;;;;5015822;28;20497;-75
2023/12/13 06:56:54;;;;;;;220.97;53.40;;;6.50;90.70;;;;;;5009050;28;20061;-74
2023/12/13 06:59:20;;;;;;;232.23;56.70;;;6.50;90.60;;;;;;5015240;28;20131;-75
2023/12/13 07:01:46;;;;;;;214.40;54.50;;;6.50;90.70;;;;;;5026037;28;20092;-75
2023/12/13 07:04:11;;;;;;;210.47;54.30;;;6.50;90.70;;;;;;5013726;28;20053;-75
2023/12/13 07:06:37;;;;;;;215.20;53.53;;;6.50;90.70;;;;;;5015328;28;20053;-75
2023/12/13 07:09:03;;;;;;;224.37;53.70;;;6.50;90.70;;;;;;5026036;28;20330;-75
2023/12/13 07:11:29;;;;;;;224.57;53.70;;;6.50;90.70;;;;;;5028215;28;20126;-75
2023/12/13 07:13:55;;;;;;;269.80;113.30;;;6.50;90.60;;;;;;5027702;28;20057;-75
2023/12/13 07:16:21;;;;;;;233.67;55.23;;;6.50;90.70;;;;;;5025791;28;20056;-75
2023/12/13 07:18:46;;;;;;;240.47;56.67;;;6.50;90.70;;;;;;5025178;28;20061;-74
2023/12/13 07:21:12;;;;;;;161.93;48.50;;;6.60;90.70;;;;;;5028843;28;20132;-75
2023/12/13 07:23:39;;;;;;;183.10;51.07;;;6.60;90.70;;;;;;5028745;28;20069;-75
2023/12/13 07:26:05;;;;;;;234.63;56.17;;;6.60;90.70;;;;;;5027085;28;20053;-75
2023/12/13 07:28:31;;;;;;;202.70;56.13;;;6.60;90.80;;;;;;5043103;28;20061;-75
2023/12/13 07:30:57;;;;;;;228.20;57.90;;;6.50;90.70;;;;;;5019776;28;20084;-74
2023/12/13 07:33:23;;;;;;;244.53;60.37;;;6.60;90.80;;;;;;5028962;28;20041;-75
2023/12/13 07:35:49;;;;;;;233.23;59.17;;;6.60;90.70;;;;;;5027318;28;20464;-74
2023/12/13 07:38:15;;;;;;;233.20;60.30;;;6.60;90.60;;;;;;5029090;28;20124;-75
2023/12/13 07:40:44;;;;;;;245.37;59.90;;;6.60;90.70;;;;;;5025459;28;20503;-75
2023/12/13 07:43:11;;;;;;;207.83;59.17;;;6.60;90.70;;;;;;5023207;28;20052;-75
2023/12/13 07:45:36;;;;;;;187.50;55.57;;;6.50;90.70;;;;;;5027430;28;20049;-75
2023/12/13 07:48:03;;;;;;;222.20;58.53;;;6.60;90.70;;;;;;5025169;28;20136;-75
2023/12/13 07:50:29;;;;;;;252.37;62.87;;;6.60;90.70;;;;;;5027142;28;20057;-75
2023/12/13 07:52:56;;;;;;;250.30;62.27;;;6.60;90.70;;;;;;5025119;28;20072;-75
2023/12/13 07:55:23;;;;;;;213.30;57.87;;;6.60;90.70;;;;;;5024963;28;20507;-75
2023/12/13 07:57:49;;;;;;;229.30;60.00;;;6.60;90.70;;;;;;5026956;28;20049;-74
2023/12/13 08:00:15;;;;;;;246.30;63.70;;;6.60;90.70;;;;;;5026899;28;20045;-75
2023/12/13 08:02:41;;;;;;;203.70;57.43;;;6.60;90.70;;;;;;5027048;28;20080;-75
2023/12/13 08:05:08;;;;;;;250.63;64.17;;;6.60;90.80;;;;;;5025473;28;21806;-74
2023/12/13 08:07:35;;;;;;;236.83;63.33;;;6.60;90.80;;;;;;5025762;28;20045;-75
2023/12/13 08:10:03;;;;;;;329.47;67.20;;;6.60;90.80;;;;;;5024082;28;20038;-75
2023/12/13 08:12:28;;;;;;;295.33;68.20;;;6.60;90.80;;;;;;5019945;28;20053;-75
2023/12/13 08:14:54;;;;;;;227.23;59.43;;;6.60;90.70;;;;;;5008886;28;20065;-75
2023/12/13 08:17:20;;;;;;;217.57;60.10;;;6.60;90.70;;;;;;5011838;28;20054;-75
2023/12/13 08:19:46;;;;;;;232.07;58.77;;;6.60;90.80;;;;;;4995777;28;20111;-74
2023/12/13 08:22:12;;;;;;;197.93;58.27;;;6.70;90.70;;;;;;4985320;28;20665;-75
2023/12/13 08:24:37;;;;;;;221.63;59.00;;;6.70;90.80;;;;;;4998181;28;20049;-75
2023/12/13 08:27:03;;;;;;;243.70;62.63;;;6.70;90.80;;;;;;4996208;28;20046;-75
2023/12/13 08:29:30;;;;;;;265.20;87.13;;;6.70;90.80;;;;;;5012278;28;20080;-74
2023/12/13 08:31:55;;;;;;;237.60;61.03;;;6.70;90.80;;;;;;4996441;28;20068;-75
2023/12/13 08:34:21;;;;;;;234.97;59.23;;;6.70;90.80;;;;;;5000364;28;20721;-75
2023/12/13 08:36:47;;;;;;;305.37;68.30;;;6.70;90.80;;;;;;4996429;28;20037;-75
2023/12/13 08:39:13;;;;;;;176.77;54.07;;;6.70;90.80;;;;;;4996869;28;20499;-75
2023/12/13 08:41:39;;;;;;;225.40;61.07;;;6.70;90.90;;;;;;4994160;28;20060;-75
2023/12/13 08:44:05;;;;;;;256.40;62.77;;;6.70;90.80;;;;;;4932887;28;20064;-75
2023/12/13 08:46:30;;;;;;;231.47;59.40;;;6.70;90.80;;;;;;4995463;28;20460;-75
2023/12/13 08:48:56;;;;;;;260.47;63.20;;;6.80;90.90;;;;;;4997356;28;20702;-75
2023/12/13 08:51:22;;;;;;;224.37;59.53;;;6.80;90.90;;;;;;4995997;28;20057;-75
2023/12/13 08:53:49;;;;;;;226.17;59.90;;;6.80;90.90;;;;;;4997633;28;20108;-75
2023/12/13 08:56:15;;;;;;;188.77;58.37;;;6.80;90.90;;;;;;4995696;28;20458;-75
2023/12/13 08:58:41;;;;;;;206.07;60.70;;;6.80;90.80;;;;;;4993205;28;20054;-75
2023/12/13 09:01:07;;;;;;;202.13;61.27;;;6.80;90.90;;;;;;4993390;28;20485;-75
2023/12/13 09:03:33;;;;;;;188.27;58.50;;;6.90;90.90;;;;;;5004849;28;20501;-75
2023/12/13 09:05:58;;;;;;;185.23;58.57;;;6.90;90.90;;;;;;4997553;28;20057;-75
2023/12/13 09:08:24;;;;;;;248.07;66.33;;;6.90;91.00;;;;;;5010041;28;20490;-75
2023/12/13 09:10:50;;;;;;;212.67;63.83;;;6.90;91.00;;;;;;4994403;28;20140;-75
2023/12/13 09:13:15;;;;;;;225.33;65.33;;;6.90;91.00;;;;;;4998481;28;20112;-75
2023/12/13 09:15:42;;;;;;;174.60;59.17;;;6.90;91.00;;;;;;4997083;28;20050;-75
2023/12/13 09:18:09;;;;;;;234.70;65.63;;;7.00;91.00;;;;;;4990763;28;20489;-75
2023/12/13 09:20:34;;;;;;;198.30;65.17;;;7.00;90.90;;;;;;4994638;28;20069;-75
2023/12/13 09:23:00;;;;;;;219.90;67.30;;;7.00;90.90;;;;;;4996685;28;20073;-75
2023/12/13 09:25:26;;;;;;;196.57;65.90;;;7.00;91.00;;;;;;5002355;28;20080;-75
2023/12/13 09:27:52;;;;;;;217.57;65.07;;;7.00;91.00;;;;;;4999368;28;20112;-75
2023/12/13 09:30:18;;;;;;;219.90;64.70;;;7.00;91.00;;;;;;4999502;28;20056;-75
2023/12/13 09:32:44;;;;;;;230.30;67.17;;;7.00;91.10;;;;;;4999077;28;21168;-75
2023/12/13 09:35:09;;;;;;;296.40;73.70;;;7.00;91.00;;;;;;5002100;28;20118;-74
2023/12/13 09:37:35;;;;;;;359.20;78.63;;;7.00;91.00;;;;;;4999277;28;20081;-75
2023/12/13 09:40:01;;;;;;;263.17;69.63;;;7.10;91.00;;;;;;5000534;28;20064;-75
2023/12/13 09:42:27;;;;;;;315.83;81.63;;;7.20;91.10;;;;;;4995200;28;20064;-75
2023/12/13 09:44:54;;;;;;;359.67;80.10;;;7.20;91.10;;;;;;4999691;28;20053;-75
2023/12/13 09:47:21;;;;;;;284.93;76.60;;;7.20;91.10;;;;;;4996405;28;20532;-75
2023/12/13 09:49:49;;;;;;;301.90;76.87;;;7.20;91.10;;;;;;4997036;28;20057;-74
2023/12/13 09:52:18;;;;;;;302.23;76.57;;;7.30;91.10;;;;;;4996024;28;20049;-75
2023/12/13 09:54:45;;;;;;;312.43;79.80;;;7.30;91.10;;;;;;4996809;28;20572;-75
2023/12/13 09:57:11;;;;;;;282.50;78.57;;;7.40;91.20;;;;;;4998088;28;20080;-75
2023/12/13 09:59:38;;;;;;;281.70;76.53;;;7.40;91.20;;;;;;4993378;28;20765;-75
2023/12/13 10:02:11;;;;;;;296.17;79.77;;;7.40;91.10;;;;;;4993274;28;20564;-75
2023/12/13 10:04:38;;;;;;;234.67;67.93;;;7.40;91.20;;;;;;4992526;28;20046;-75
2023/12/13 10:07:06;;;;;;;233.47;67.80;;;7.50;91.20;;;;;;4991264;28;20054;-75
2023/12/13 10:09:32;;;;;;;275.87;74.90;;;7.50;91.20;;;;;;5019692;28;20496;-75
2023/12/13 10:12:01;;;;;;;253.40;71.87;;;7.40;91.20;;;;;;4992220;28;20050;-75
2023/12/13 10:14:29;;;;;;;261.23;73.57;;;7.50;91.20;;;;;;4996798;28;20260;-75
2023/12/13 10:16:56;;;;;;;266.53;72.60;;;7.50;91.20;;;;;;4993983;28;21627;-75
2023/12/13 10:19:22;;;;;;;260.77;75.97;;;7.50;91.20;;;;;;4994916;28;20046;-75
2023/12/13 10:21:48;;;;;;;232.83;69.20;;;7.50;91.10;;;;;;4993239;28;20508;-75
2023/12/13 10:24:15;;;;;;;250.73;71.60;;;7.50;91.20;;;;;;4997688;28;20058;-75
2023/12/13 10:26:41;;;;;;;252.90;79.07;;;7.50;91.20;;;;;;4994797;28;20055;-75
2023/12/13 10:29:07;;;;;;;245.60;75.73;;;7.60;91.20;;;;;;5011775;28;20173;-75
2023/12/13 10:31:33;;;;;;;265.13;79.57;;;7.60;91.20;;;;;;4995134;28;20142;-75
2023/12/13 10:33:59;;;;;;;219.10;73.07;;;7.60;91.20;;;;;;4993280;28;20053;-75
2023/12/13 10:36:26;;;;;;;267.33;77.90;;;7.70;91.20;;;;;;4991373;28;20100;-76
2023/12/13 10:38:54;;;;;;;245.43;78.50;;;7.80;91.30;;;;;;4995812;28;20540;-75
2023/12/13 10:41:25;;;;;;;245.33;73.33;;;7.80;91.20;;;;;;4994479;28;20559;-75
2023/12/13 10:43:55;;;;;;;267.95;76.43;;;7.80;91.30;;;;;;4996921;28;20054;-75
2023/12/13 10:46:22;;;;;;;197.90;58.03;;;7.80;91.30;;;;;;4998045;28;20049;-76
2023/12/13 10:48:48;;;;;;;183.73;66.57;;;7.80;91.20;;;;;;4990288;28;20057;-75
2023/12/13 10:51:15;;;;;;;205.70;73.10;;;7.80;91.30;;;;;;4991586;28;20524;-75
2023/12/13 10:53:42;;;;;;;234.90;73.97;;;7.90;91.40;;;;;;4996033;28;20640;-75
2023/12/13 10:56:08;;;;;;;230.93;72.67;;;7.90;91.40;;;;;;4994210;28;20101;-75
2023/12/13 10:58:35;;;;;;;220.53;70.03;;;7.90;91.30;;;;;;4993695;28;20096;-75
2023/12/13 11:01:02;;;;;;;215.33;67.43;;;7.90;91.30;;;;;;5000947;28;20073;-75
2023/12/13 11:03:32;;;;;;;214.73;67.17;;;7.90;91.30;;;;;;4996344;28;20057;-76
2023/12/13 11:06:03;;;;;;;204.87;65.53;;;7.90;91.30;;;;;;4993678;28;20097;-75
2023/12/13 11:08:38;;;;;;;186.73;61.35;;;7.90;91.20;;;;;;4998938;28;20056;-75
2023/12/13 11:11:07;;;;;;;176.73;60.27;;;7.90;91.30;;;;;;4995984;28;21314;-75
2023/12/13 11:13:46;;;;;;;188.07;60.33;;;7.80;91.20;;;;;;4997596;28;20049;-75
2023/12/13 11:16:25;;;;;;;165.30;60.77;;;7.80;91.30;;;;;;4997780;28;20054;-75
2023/12/13 11:18:57;;;;;;;190.83;61.47;;;7.80;91.20;;;;;;5001175;28;20140;-75
2023/12/13 11:21:27;;;;;;;199.17;64.47;;;7.80;91.20;;;;;;4999786;28;20085;-75
2023/12/13 11:23:58;;;;;;;198.43;64.47;;;7.80;91.20;;;;;;4992313;28;20052;-75
2023/12/13 11:26:26;;;;;;;;;;;7.80;91.20;;;;;;4995253;28;20571;-75
2023/12/13 11:28:54;;;;;;;194.80;64.63;;;7.70;91.20;;;;;;4995306;28;19930;-75
2023/12/13 11:31:24;;;;;;;212.60;68.57;;;7.70;91.20;;;;;;4995230;28;20042;-75
2023/12/13 11:33:57;;;;;;;205.60;67.33;;;7.70;91.10;;;;;;4992703;28;20050;-75
2023/12/13 11:36:24;;;;;;;239.97;70.60;;;7.70;91.20;;;;;;4991351;28;20452;-75
2023/12/13 11:38:51;;;;;;;212.97;73.83;;;7.70;91.20;;;;;;4996595;28;20059;-75
2023/12/13 11:41:18;;;;;;;227.73;72.87;;;7.70;91.20;;;;;;4996656;28;20048;-75
2023/12/13 11:43:45;;;;;;;232.17;74.00;;;7.70;91.20;;;;;;4998047;28;20053;-75
2023/12/13 11:46:12;;;;;;;203.90;68.10;;;7.70;91.20;;;;;;4989525;28;20089;-75
2023/12/13 11:48:38;;;;;;;201.77;68.00;;;7.70;91.20;;;;;;4992394;28;20054;-75
2023/12/13 11:51:04;;;;;;;192.53;66.10;;;7.70;91.20;;;;;;4990805;28;20061;-75
2023/12/13 11:53:30;;;;;;;210.43;66.60;;;7.70;91.20;;;;;;4992528;28;20058;-75
2023/12/13 11:55:56;;;;;;;221.43;73.27;;;7.70;91.10;;;;;;4992444;28;20058;-75
2023/12/13 11:58:22;;;;;;;240.30;80.67;;;7.60;91.20;;;;;;4992459;28;21097;-75
2023/12/13 12:00:48;;;;;;;244.90;76.53;;;7.60;91.20;;;;;;4992299;28;20057;-75
2023/12/13 12:03:14;;;;;;;223.07;73.57;;;7.60;91.20;;;;;;4988828;28;20049;-75
2023/12/13 12:05:42;;;;;;;235.03;73.57;;;7.60;91.10;;;;;;4998314;28;20054;-75
2023/12/13 12:08:09;;;;;;;211.03;72.00;;;7.60;91.10;;;;;;4997550;28;21069;-75
2023/12/13 12:10:35;;;;;;;227.10;72.40;;;7.50;91.20;;;;;;4999163;28;20054;-75
2023/12/13 12:13:03;;;;;;;238.40;73.67;;;7.60;91.10;;;;;;5000920;28;20071;-75
2023/12/13 12:15:30;;;;;;;237.20;72.03;;;7.60;91.10;;;;;;4999731;28;20389;-76
2023/12/13 12:17:58;;;;;;;253.43;75.23;;;7.50;91.20;;;;;;4992957;28;20057;-75
2023/12/13 12:20:26;;;;;;;298.80;73.83;;;7.50;91.10;;;;;;5010046;28;20552;-75
2023/12/13 12:22:52;;;;;;;294.53;70.53;;;7.50;91.10;;;;;;4981420;28;20064;-75